Time;durP1;ratioP1;P1;durP2;ratioP2;P2;SDS_P1;SDS_P2;PMS_P1;PMS_P2;Temp;Humidity;BMP_temperature;BMP_pressure;BME280_temperature;BME280_humidity;BME280_pressure;Samples;Min_cycle;Max_cycle;Signal;HPM_P1;HPM_P2
2022/11/04 00:01:46;;;;;;;38.78;20.95;;;;;;;9.28;99.59;98808.97;4894315;29;20032;-86
2022/11/04 00:04:13;;;;;;;29.13;19.20;;;;;;;9.27;99.56;98815.09;4875794;29;20602;-86
2022/11/04 00:06:39;;;;;;;36.05;20.38;;;;;;;9.25;99.84;98798.72;4860065;29;20048;-86
2022/11/04 00:09:07;;;;;;;37.10;21.50;;;;;;;9.28;99.91;98808.13;4875831;29;20029;-86
2022/11/04 00:14:18;;;;;;;36.95;21.90;;;;;;;9.31;100.00;98810.53;4876181;29;20079;-86
2022/11/04 00:19:28;;;;;;;34.03;20.15;;;;;;;9.31;100.00;98802.75;4875865;29;20060;-86
2022/11/04 00:30:08;;;;;;;29.88;20.77;;;;;;;9.29;100.00;98802.00;4876043;29;20035;-86
2022/11/04 00:35:19;;;;;;;34.47;20.05;;;;;;;9.27;100.00;98798.63;4887315;29;20132;-86
2022/11/04 00:37:44;;;;;;;30.52;21.75;;;;;;;9.23;100.00;98783.22;4856766;29;20099;-86
2022/11/04 00:40:13;;;;;;;31.77;21.45;;;;;;;9.23;100.00;98779.81;4857194;29;20044;-86
2022/11/04 00:42:40;;;;;;;41.20;23.92;;;;;;;9.29;100.00;98782.06;4841455;29;20047;-86
2022/11/04 00:45:06;;;;;;;37.15;22.52;;;;;;;9.31;100.00;98781.94;4841472;29;20033;-86
2022/11/04 00:47:31;;;;;;;33.50;21.25;;;;;;;9.26;100.00;98769.22;4856903;29;20037;-86
2022/11/04 00:49:57;;;;;;;35.65;23.08;;;;;;;9.32;100.00;98781.88;4841316;29;20387;-86
2022/11/04 00:52:22;;;;;;;37.85;22.20;;;;;;;9.33;100.00;98765.38;4841537;29;20133;-86
2022/11/04 00:54:48;;;;;;;37.35;23.80;;;;;;;9.29;100.00;98752.63;4841360;29;20069;-86
2022/11/04 00:57:14;;;;;;;34.67;22.85;;;;;;;9.30;100.00;98749.94;4841602;29;20132;-86
2022/11/04 00:59:40;;;;;;;37.75;23.15;;;;;;;9.27;100.00;98746.66;4856672;29;20038;-86
2022/11/04 01:02:06;;;;;;;35.83;23.10;;;;;;;9.24;100.00;98750.28;4859975;29;20093;-85
2022/11/04 01:04:31;;;;;;;36.33;24.45;;;;;;;9.17;100.00;98733.34;4823367;29;20045;-86
2022/11/04 01:06:57;;;;;;;34.33;24.38;;;;;;;9.21;100.00;98743.50;4808077;29;20042;-85
2022/11/04 01:09:22;;;;;;;43.70;25.20;;;;;;;9.28;100.00;98745.78;4865953;29;20052;-86
2022/11/04 01:11:48;;;;;;;37.13;24.30;;;;;;;9.32;100.00;98749.88;4878672;29;20036;-86
2022/11/04 01:14:13;;;;;;;33.55;22.83;;;;;;;9.25;100.00;98737.22;4863131;29;20660;-86
2022/11/04 01:16:39;;;;;;;30.70;22.55;;;;;;;9.29;100.00;98737.03;4878705;29;20092;-86
2022/11/04 01:19:05;;;;;;;36.30;23.75;;;;;;;9.29;100.00;98727.47;4863240;29;20105;-86
2022/11/04 01:21:31;;;;;;;37.65;24.38;;;;;;;9.19;100.00;98719.38;4878583;29;20139;-86
2022/11/04 01:23:56;;;;;;;34.40;23.10;;;;;;;9.29;100.00;98719.69;4862945;29;20129;-86
2022/11/04 01:26:23;;;;;;;38.47;24.70;;;;;;;9.29;100.00;98711.88;4878728;29;20056;-86
2022/11/04 01:28:50;;;;;;;35.28;22.42;;;;;;;9.28;100.00;98714.59;4862672;29;20025;-86
2022/11/04 01:31:21;;;;;;;38.05;24.73;;;;;;;9.18;100.00;98699.50;4878593;29;20321;-86
2022/11/04 01:33:47;;;;;;;33.08;22.13;;;;;;;9.13;100.00;98700.69;4862688;29;20087;-86
2022/11/04 01:36:13;;;;;;;35.65;23.60;;;;;;;9.13;100.00;98705.88;4890042;29;20060;-86
2022/11/04 01:38:38;;;;;;;34.75;22.73;;;;;;;9.19;100.00;98705.56;4898045;29;20029;-86
2022/11/04 01:41:05;;;;;;;37.78;24.05;;;;;;;9.17;100.00;98708.22;4898219;29;20123;-86
2022/11/04 01:44:01;;;;;;;30.60;21.13;;;;;;;9.15;100.00;98697.09;4898072;29;20020;-86
2022/11/04 01:46:42;;;;;;;35.28;23.15;;;;;;;9.19;100.00;98703.78;4823172;29;20049;-86
2022/11/04 01:49:31;;;;;;;33.85;20.60;;;;;;;9.12;100.00;98694.66;4823037;29;20501;-86
2022/11/04 01:52:02;;;;;;;32.28;22.10;;;;;;;9.08;100.00;98706.13;4807448;29;20046;-86
2022/11/04 01:54:28;;;;;;;;;;;;;;;9.06;100.00;98701.94;4808159;29;20030;-86
2022/11/04 01:56:54;;;;;;;36.35;21.35;;;;;;;8.97;100.00;98695.50;4807463;29;19908;-86
2022/11/04 01:59:25;;;;;;;36.70;22.88;;;;;;;8.91;100.00;98681.09;4786603;30;20040;-85
2022/11/04 02:01:50;;;;;;;35.00;22.77;;;;;;;8.97;100.00;98688.56;4786280;29;20544;-86
2022/11/04 02:04:25;;;;;;;32.00;20.58;;;;;;;8.95;100.00;98689.56;4786420;29;20052;-86
2022/11/04 02:06:59;;;;;;;31.70;20.73;;;;;;;9.00;100.00;98698.75;4786393;30;20027;-86
2022/11/04 02:09:28;;;;;;;32.85;20.98;;;;;;;8.99;100.00;98691.06;4786351;30;20062;-86
2022/11/04 02:14:39;;;;;;;37.05;21.23;;;;;;;9.04;100.00;98690.81;4786714;30;20037;-86
2022/11/04 02:17:13;;;;;;;30.67;20.92;;;;;;;9.04;100.00;98689.03;4786250;29;20081;-86
2022/11/04 02:19:51;;;;;;;31.92;21.27;;;;;;;9.06;100.00;98692.41;4786244;29;20054;-86
2022/11/04 02:22:19;;;;;;;36.83;22.40;;;;;;;9.07;100.00;98683.69;4789278;29;20076;-86
2022/11/04 02:25:02;;;;;;;35.25;21.55;;;;;;;9.08;100.00;98684.53;4843345;29;20383;-86
2022/11/04 02:27:36;;;;;;;31.20;20.13;;;;;;;9.09;100.00;98678.41;4843538;29;20026;-86
2022/11/04 02:30:08;;;;;;;34.22;22.63;;;;;;;9.03;100.00;98671.78;4861603;29;20032;-86
2022/11/04 02:32:47;;;;;;;33.20;21.90;;;;;;;8.98;100.00;98658.22;4897362;29;20115;-86
2022/11/04 02:35:40;;;;;;;34.97;21.95;;;;;;;9.04;100.00;98672.63;4897286;29;20064;-86
2022/11/04 02:38:26;;;;;;;29.55;19.60;;;;;;;9.00;100.00;98667.59;4898332;29;20520;-86
2022/11/04 02:41:13;;;;;;;29.23;20.80;;;;;;;9.02;100.00;98661.47;4897199;29;20529;-85
2022/11/04 02:44:00;;;;;;;33.20;20.55;;;;;;;9.01;100.00;98671.03;4897078;29;20469;-86
2022/11/04 02:46:58;;;;;;;30.80;20.58;;;;;;;8.95;100.00;98659.22;4897261;29;20036;-85
2022/11/04 02:49:34;;;;;;;26.90;19.67;;;;;;;8.94;100.00;98667.13;4898724;29;20064;-86
2022/11/04 02:52:10;;;;;;;33.75;20.98;;;;;;;8.89;100.00;98653.53;4896676;29;20080;-86
2022/11/04 02:54:45;;;;;;;30.42;20.83;;;;;;;8.95;100.00;98669.63;4897080;29;20092;-85
2022/11/04 02:57:14;;;;;;;28.40;18.45;;;;;;;8.91;100.00;98659.50;4898262;29;20028;-86
2022/11/04 02:59:46;;;;;;;28.55;20.42;;;;;;;8.98;100.00;98669.44;4898403;29;20029;-86
2022/11/04 03:02:18;;;;;;;27.40;18.15;;;;;;;8.92;100.00;98655.97;4896769;29;20036;-86
2022/11/04 03:04:48;;;;;;;25.80;19.40;;;;;;;8.83;100.00;98644.31;4896446;29;20092;-86
2022/11/04 03:07:16;;;;;;;28.10;18.80;;;;;;;8.95;100.00;98658.41;4896731;29;20115;-86
2022/11/04 03:09:47;;;;;;;26.63;18.60;;;;;;;8.94;100.00;98654.13;4896895;29;20033;-86
2022/11/04 03:12:16;;;;;;;28.85;18.92;;;;;;;8.93;100.00;98655.91;4896805;29;20472;-86
2022/11/04 03:14:47;;;;;;;28.70;19.00;;;;;;;8.92;100.00;98651.59;4897869;29;20028;-86
2022/11/04 03:17:45;;;;;;;26.15;19.38;;;;;;;8.93;100.00;98655.91;4896372;29;20025;-86
2022/11/04 03:20:22;;;;;;;26.88;19.20;;;;;;;8.96;100.00;98642.72;4805897;29;20042;-86
2022/11/04 03:22:48;;;;;;;29.17;18.27;;;;;;;8.96;100.00;98650.50;4805853;29;20530;-85
2022/11/04 03:25:14;;;;;;;29.25;20.90;;;;;;;8.91;100.00;98644.75;4805859;29;20038;-86
2022/11/04 03:27:57;;;;;;;27.10;18.67;;;;;;;8.89;100.00;98641.41;4805987;29;20516;-86
2022/11/04 03:30:23;;;;;;;31.00;19.92;;;;;;;8.84;100.00;98633.00;4784942;30;20049;-86
2022/11/04 03:32:57;;;;;;;27.63;18.40;;;;;;;8.91;100.00;98647.34;4784663;30;20035;-86
2022/11/04 03:35:23;;;;;;;26.33;19.70;;;;;;;8.86;100.00;98646.75;4785056;30;20126;-86
2022/11/04 03:37:49;;;;;;;28.88;19.73;;;;;;;8.90;100.00;98632.69;4784583;29;20066;-86
2022/11/04 03:40:16;;;;;;;26.70;19.95;;;;;;;8.88;100.00;98625.91;4784928;29;20108;-86
2022/11/04 03:42:58;;;;;;;26.42;19.77;;;;;;;8.89;100.00;98623.22;4784912;29;20436;-86
2022/11/04 03:45:24;;;;;;;29.38;19.23;;;;;;;8.88;100.00;98628.50;4784915;29;20039;-86
2022/11/04 03:47:50;;;;;;;31.48;22.35;;;;;;;8.82;100.00;98614.09;4784406;29;20042;-86
2022/11/04 03:50:26;;;;;;;28.92;20.35;;;;;;;8.80;100.00;98615.09;4784681;29;20392;-86
2022/11/04 03:52:51;;;;;;;28.02;20.88;;;;;;;8.83;100.00;98613.16;4784437;29;20531;-86
2022/11/04 03:55:17;;;;;;;33.85;22.67;;;;;;;8.80;100.00;98610.72;4784651;30;20081;-86
2022/11/04 03:58:03;;;;;;;30.10;21.40;;;;;;;8.80;100.00;98607.31;4833220;29;20040;-86
2022/11/04 04:00:37;;;;;;;30.83;21.58;;;;;;;8.85;100.00;98623.47;4844339;29;20120;-86
2022/11/04 04:03:24;;;;;;;40.20;23.17;;;;;;;8.83;100.00;98614.94;4879337;29;20044;-86
2022/11/04 04:06:02;;;;;;;33.28;23.02;;;;;;;8.84;100.00;98619.19;4895664;29;20480;-86
2022/11/04 04:08:42;;;;;;;30.77;22.00;;;;;;;8.91;100.00;98617.94;4895780;29;20376;-86
2022/11/04 04:11:35;;;;;;;33.80;22.87;;;;;;;8.91;100.00;98604.94;4895447;29;20029;-87
2022/11/04 04:14:41;;;;;;;26.50;20.80;;;;;;;8.99;100.00;98601.00;4896740;29;20772;-86
2022/11/04 04:17:21;;;;;;;30.08;19.73;;;;;;;8.99;100.00;98595.81;4820652;29;20468;-87
2022/11/04 04:19:56;;;;;;;30.00;22.30;;;;;;;9.06;100.00;98609.28;4820529;29;20065;-87
2022/11/04 04:22:28;;;;;;;33.22;23.52;;;;;;;9.04;100.00;98602.50;4820807;29;20045;-87
2022/11/04 04:27:42;;;;;;;40.85;23.98;;;;;;;9.10;100.00;98595.22;4820980;29;20057;-87
2022/11/04 04:30:11;;;;;;;32.65;21.83;;;;;;;9.10;100.00;98584.81;4805272;29;20481;-87
2022/11/04 04:32:40;;;;;;;30.48;20.92;;;;;;;9.16;100.00;98588.81;4805420;29;20042;-87
2022/11/04 04:37:54;;;;;;;38.90;23.45;;;;;;;9.25;100.00;98575.28;4824334;29;20070;-86
2022/11/04 04:46:00;;;;;;;33.28;23.10;;;;;;;9.22;100.00;98576.28;4824102;29;20113;-87
2022/11/04 04:48:25;;;;;;;34.55;25.88;;;;;;;9.25;100.00;98577.88;4823894;29;20031;-87
2022/11/04 04:50:55;;;;;;;39.65;26.15;;;;;;;9.25;100.00;98578.72;4808394;29;20037;-87
2022/11/04 04:53:22;;;;;;;40.83;26.27;;;;;;;9.23;100.00;98582.34;4882415;29;20040;-87
2022/11/04 04:55:47;;;;;;;34.72;24.45;;;;;;;9.10;100.00;98563.16;4899136;29;20021;-87
2022/11/04 04:58:12;;;;;;;35.10;25.88;;;;;;;9.14;100.00;98569.88;4898821;29;20024;-86
2022/11/04 05:00:38;;;;;;;31.67;24.17;;;;;;;9.09;100.00;98571.91;4899168;29;20526;-87
2022/11/04 05:03:03;;;;;;;35.90;24.50;;;;;;;9.11;100.00;98575.25;4898754;29;20020;-87
2022/11/04 05:05:29;;;;;;;36.60;26.25;;;;;;;9.11;100.00;98580.44;4898752;29;20028;-87
2022/11/04 05:07:54;;;;;;;39.58;23.90;;;;;;;9.10;100.00;98581.34;4898654;29;20115;-87
2022/11/04 05:10:19;;;;;;;32.72;24.83;;;;;;;9.03;100.00;98570.50;4897499;29;20512;-86
2022/11/04 05:15:30;;;;;;;39.65;27.55;;;;;;;9.11;100.00;98572.66;4897836;29;20040;-87
2022/11/04 05:17:58;;;;;;;32.67;23.10;;;;;;;9.08;100.00;98571.06;4897222;29;20037;-87
2022/11/04 05:20:24;;;;;;;38.40;23.33;;;;;;;9.06;100.00;98569.47;4897340;29;20505;-87
2022/11/04 05:22:49;;;;;;;35.67;24.92;;;;;;;9.04;100.00;98560.94;4897160;29;20035;-87
2022/11/04 05:25:15;;;;;;;37.92;23.92;;;;;;;9.02;100.00;98554.97;4881454;29;20044;-86
2022/11/04 05:27:40;;;;;;;38.45;26.70;;;;;;;8.99;100.00;98551.66;4881719;29;20362;-87
2022/11/04 05:30:07;;;;;;;38.10;25.05;;;;;;;8.89;100.00;98534.94;4897426;29;20045;-87
2022/11/04 05:32:32;;;;;;;36.60;24.42;;;;;;;8.99;100.00;98556.84;4881471;29;20631;-87
2022/11/04 05:34:58;;;;;;;33.45;23.08;;;;;;;8.99;100.00;98562.03;4881245;29;20127;-86
2022/11/04 05:37:24;;;;;;;46.90;26.65;;;;;;;9.01;100.00;98567.13;4897121;29;20111;-86
2022/11/04 05:39:49;;;;;;;37.15;25.50;;;;;;;9.06;100.00;98559.94;4881498;29;20120;-86
2022/11/04 05:42:14;;;;;;;42.50;26.92;;;;;;;9.03;100.00;98554.91;4897929;29;20033;-86
2022/11/04 05:44:40;;;;;;;42.72;27.52;;;;;;;8.96;100.00;98538.00;4899793;29;20052;-86
2022/11/04 05:47:05;;;;;;;44.30;27.00;;;;;;;8.99;100.00;98543.03;4899173;29;20480;-86
2022/11/04 05:49:31;;;;;;;53.38;27.13;;;;;;;9.00;100.00;98537.72;4898247;29;20024;-86
2022/11/04 05:51:56;;;;;;;40.58;26.95;;;;;;;9.06;100.00;98543.50;4897907;29;20533;-86
2022/11/04 05:54:22;;;;;;;41.70;28.05;;;;;;;9.07;100.00;98542.59;4898227;29;20038;-86
2022/11/04 05:56:47;;;;;;;44.58;29.70;;;;;;;9.08;100.00;98547.69;4897992;29;20111;-86
2022/11/04 05:59:13;;;;;;;42.92;26.98;;;;;;;9.08;100.00;98544.25;4897870;29;20100;-86
2022/11/04 06:01:40;;;;;;;49.63;29.63;;;;;;;9.10;100.00;98545.00;4897758;29;20027;-86
2022/11/04 06:04:06;;;;;;;43.03;28.17;;;;;;;9.13;100.00;98545.66;4899008;29;20035;-86
2022/11/04 06:06:35;;;;;;;41.65;26.10;;;;;;;9.11;100.00;98544.09;4897904;29;20032;-87
2022/11/04 06:09:02;;;;;;;46.28;28.95;;;;;;;9.11;100.00;98547.50;4897492;29;20115;-86
2022/11/04 06:11:29;;;;;;;41.05;28.50;;;;;;;9.19;100.00;98557.47;4899015;29;20067;-87
2022/11/04 06:13:55;;;;;;;53.22;32.50;;;;;;;9.32;100.00;98562.78;4899003;29;20550;-86
2022/11/04 06:16:21;;;;;;;45.17;32.55;;;;;;;9.29;100.00;98553.38;4898792;29;20024;-86
2022/11/04 06:18:47;;;;;;;44.03;29.27;;;;;;;9.39;100.00;98564.06;4897659;29;20028;-86
2022/11/04 06:21:12;;;;;;;39.78;27.10;;;;;;;9.46;100.00;98571.41;4898721;29;20048;-84
2022/11/04 06:23:38;;;;;;;52.30;31.67;;;;;;;9.46;100.00;98560.19;4898633;29;20473;-86
2022/11/04 06:26:05;;;;;;;48.78;31.83;;;;;;;9.57;100.00;98567.38;4897209;29;20049;-86
2022/11/04 06:28:30;;;;;;;47.80;33.15;;;;;;;9.60;100.00;98562.78;4899026;29;20075;-86
2022/11/04 06:30:57;;;;;;;49.90;31.50;;;;;;;9.73;100.00;98574.16;4898571;29;20032;-86
2022/11/04 06:33:22;;;;;;;43.92;29.27;;;;;;;9.82;100.00;98577.09;4897464;29;20479;-86
2022/11/04 06:35:48;;;;;;;42.05;30.58;;;;;;;9.95;100.00;98583.25;4897354;29;20025;-86
2022/11/04 06:38:13;;;;;;;40.78;29.30;;;;;;;9.97;100.00;98573.56;4898338;29;20032;-86
2022/11/04 06:40:38;;;;;;;49.67;29.60;;;;;;;9.95;100.00;98559.84;4897094;29;20033;-86
2022/11/04 06:43:04;;;;;;;41.90;27.48;;;;;;;10.05;100.00;98568.75;4898349;29;20076;-86
2022/11/04 06:45:29;;;;;;;41.35;28.15;;;;;;;10.08;100.00;98562.53;4898159;29;20032;-87
2022/11/04 06:47:54;;;;;;;35.45;25.92;;;;;;;10.17;100.00;98567.16;4898244;29;20027;-86
2022/11/04 06:50:20;;;;;;;41.40;27.65;;;;;;;10.16;100.00;98566.31;4896844;29;20362;-86
2022/11/04 06:52:45;;;;;;;42.85;27.83;;;;;;;10.05;100.00;98553.13;4896990;29;20029;-86
2022/11/04 06:55:11;;;;;;;44.45;30.85;;;;;;;10.08;100.00;98562.53;4896657;29;20141;-86
2022/11/04 06:57:36;;;;;;;38.13;27.35;;;;;;;10.07;100.00;98569.50;4896981;29;20029;-86
2022/11/04 07:00:02;;;;;;;40.30;27.73;;;;;;;10.07;100.00;98574.69;4896209;29;20303;-86
2022/11/04 07:02:28;;;;;;;49.20;29.13;;;;;;;9.97;100.00;98560.56;4897065;29;20031;-86
2022/11/04 07:04:53;;;;;;;40.15;27.48;;;;;;;10.00;100.00;98574.22;4896912;29;20372;-86
2022/11/04 07:07:19;;;;;;;40.17;28.70;;;;;;;9.99;100.00;98572.56;4898033;29;20024;-86
2022/11/04 07:09:44;;;;;;;39.45;28.58;;;;;;;10.09;100.00;98598.84;4896612;29;20576;-86
2022/11/04 07:12:09;;;;;;;43.38;30.25;;;;;;;10.06;100.00;98591.22;4896338;29;20025;-86
2022/11/04 07:14:35;;;;;;;40.58;27.60;;;;;;;10.22;100.00;98615.38;4898026;29;20112;-86
2022/11/04 07:17:00;;;;;;;41.22;27.00;;;;;;;10.28;100.00;98603.78;4896452;29;20029;-86
2022/11/04 07:19:26;;;;;;;41.75;29.10;;;;;;;10.38;100.00;98611.84;4896406;29;20031;-86
2022/11/04 07:21:51;;;;;;;43.45;28.98;;;;;;;10.40;100.00;98607.38;4896488;29;20115;-86
2022/11/04 07:24:17;;;;;;;43.08;29.92;;;;;;;10.43;100.00;98604.59;4896151;29;20112;-86
2022/11/04 07:26:42;;;;;;;43.65;29.83;;;;;;;10.45;100.00;98590.56;4897890;29;20029;-86
2022/11/04 07:29:09;;;;;;;37.90;27.17;;;;;;;10.53;100.00;98591.81;4895948;29;20024;-86
2022/11/04 07:31:35;;;;;;;45.67;32.13;;;;;;;10.63;100.00;98608.56;4896462;29;20028;-87
2022/11/04 07:34:01;;;;;;;39.30;29.35;;;;;;;10.65;100.00;98602.28;4896114;29;20024;-87
2022/11/04 07:36:27;;;;;;;41.28;29.17;;;;;;;10.76;100.00;98608.59;4896238;29;20496;-87
2022/11/04 07:38:53;;;;;;;39.20;27.73;;;;;;;10.76;100.00;98592.97;4897415;29;20032;-86
2022/11/04 07:41:19;;;;;;;47.22;31.40;;;;;;;10.81;100.00;98591.75;4897156;29;20465;-86
2022/11/04 07:43:51;;;;;;;43.80;29.50;;;;;;;10.88;100.00;98593.03;4897357;29;20029;-86
2022/11/04 07:46:17;;;;;;;36.88;26.10;;;;;;;11.06;100.00;98597.97;4895976;29;20032;-86
2022/11/04 07:48:43;;;;;;;42.35;29.15;;;;;;;11.19;100.00;98583.19;4895989;29;20032;-86
2022/11/04 07:51:11;;;;;;;37.15;28.25;;;;;;;11.44;100.00;98595.44;4897057;29;20084;-86
2022/11/04 07:53:37;;;;;;;34.03;25.23;;;;;;;11.57;100.00;98590.22;4897258;29;20381;-86
2022/11/04 07:56:10;;;;;;;38.63;27.80;;;;;;;11.56;100.00;98588.56;4896914;29;20031;-87
2022/11/04 07:58:36;;;;;;;36.35;28.05;;;;;;;11.58;100.00;98591.88;4895793;29;20043;-87
2022/11/04 08:01:04;;;;;;;36.33;27.80;;;;;;;11.56;100.00;98592.00;4897051;29;20024;-86
2022/11/04 08:03:30;;;;;;;37.80;28.73;;;;;;;11.53;100.00;98594.81;4897156;29;20028;-86
2022/11/04 08:05:59;;;;;;;43.60;29.38;;;;;;;11.43;100.00;98599.81;4893748;29;20025;-87
2022/11/04 08:08:26;;;;;;;34.22;24.58;;;;;;;11.38;100.00;98606.28;4892673;29;20028;-86
2022/11/04 08:11:05;;;;;;;39.15;27.17;;;;;;;11.14;100.00;98582.66;4895699;29;20457;-86
2022/11/04 08:13:32;;;;;;;34.03;24.88;;;;;;;11.25;100.00;98601.06;4896058;29;20033;-87
2022/11/04 08:16:02;;;;;;;36.65;27.48;;;;;;;11.22;100.00;98593.41;4897069;29;20372;-86
2022/11/04 08:18:27;;;;;;;45.78;28.05;;;;;;;11.18;100.00;98598.00;4896801;29;20028;-86
2022/11/04 08:20:53;;;;;;;39.50;27.15;;;;;;;11.17;100.00;98590.28;4895487;29;20052;-87
2022/11/04 08:23:19;;;;;;;38.00;26.15;;;;;;;11.21;100.00;98595.19;4895016;29;20025;-87
2022/11/04 08:25:45;;;;;;;41.17;27.83;;;;;;;11.24;100.00;98596.75;4897131;29;20108;-87
2022/11/04 08:28:16;;;;;;;34.63;26.70;;;;;;;11.27;100.00;98595.72;4896657;29;20104;-87
2022/11/04 08:30:55;;;;;;;36.55;25.98;;;;;;;11.30;100.00;98598.13;4895586;29;20032;-87
2022/11/04 08:33:21;;;;;;;40.45;26.65;;;;;;;11.26;100.00;98581.84;4895336;29;20515;-87
2022/11/04 08:35:46;;;;;;;36.90;26.48;;;;;;;11.32;100.00;98593.63;4895399;29;20063;-87
2022/11/04 08:38:12;;;;;;;39.15;26.90;;;;;;;11.29;100.00;98586.00;4895528;29;20492;-87
2022/11/04 08:40:38;;;;;;;43.63;26.50;;;;;;;11.34;100.00;98586.56;4896693;29;20084;-87
2022/11/04 08:43:03;;;;;;;34.45;25.88;;;;;;;11.32;100.00;98585.81;4887458;29;20029;-87
2022/11/04 08:45:29;;;;;;;38.33;28.33;;;;;;;11.26;100.00;98573.22;4885816;29;20028;-87
2022/11/04 08:47:54;;;;;;;37.22;26.50;;;;;;;11.33;100.00;98582.28;4885628;29;20477;-87
2022/11/04 08:50:26;;;;;;;33.92;25.90;;;;;;;11.44;100.00;98582.41;4883582;29;20202;-86
2022/11/04 08:52:52;;;;;;;32.97;24.70;;;;;;;11.46;100.00;98573.53;4883273;29;20021;-86
2022/11/04 08:55:17;;;;;;;33.65;25.42;;;;;;;11.57;100.00;98579.78;4877782;29;20033;-87
2022/11/04 08:57:44;;;;;;;33.10;25.20;;;;;;;11.67;100.00;98578.22;4878032;29;20045;-86
2022/11/04 09:00:10;;;;;;;32.70;23.60;;;;;;;11.71;100.00;98577.06;4877265;29;20025;-86
2022/11/04 09:02:36;;;;;;;28.80;23.33;;;;;;;11.83;100.00;98575.44;4876243;29;20115;-86
2022/11/04 09:05:02;;;;;;;37.10;25.20;;;;;;;11.89;100.00;98564.59;4877484;29;20027;-86
2022/11/04 09:07:27;;;;;;;38.60;27.30;;;;;;;12.02;100.00;98568.00;4876050;29;20029;-86
2022/11/04 09:09:53;;;;;;;34.83;26.05;;;;;;;12.14;100.00;98569.78;4877659;29;20029;-86
2022/11/04 09:12:19;;;;;;;35.67;25.67;;;;;;;12.25;100.00;98561.16;4877408;29;20037;-86
2022/11/04 09:14:44;;;;;;;32.55;23.90;;;;;;;12.40;100.00;98556.66;4877675;29;20036;-86
2022/11/04 09:17:10;;;;;;;31.55;23.88;;;;;;;12.58;100.00;98560.53;4876458;29;20053;-86
2022/11/04 09:19:35;;;;;;;36.33;24.85;;;;;;;12.69;100.00;98546.72;4876143;29;20406;-86
2022/11/04 09:22:00;;;;;;;33.08;23.92;;;;;;;12.94;99.97;98548.38;4862438;29;20064;-86
2022/11/04 09:24:26;;;;;;;35.17;25.48;;;;;;;13.13;98.50;98542.59;4881016;29;20045;-87
2022/11/04 09:26:51;;;;;;;31.08;23.60;;;;;;;13.33;97.75;98548.97;4881657;29;20052;-86
2022/11/04 09:29:17;;;;;;;32.58;22.20;;;;;;;13.41;97.26;98533.53;4880911;29;20032;-87
2022/11/04 09:31:42;;;;;;;30.10;22.70;;;;;;;13.58;96.65;98540.09;4864379;29;20017;-86
2022/11/04 09:34:07;;;;;;;32.00;23.08;;;;;;;13.63;95.99;98553.66;4864069;29;20577;-87
2022/11/04 09:36:33;;;;;;;33.75;23.83;;;;;;;13.56;95.51;98534.13;4864362;29;20069;-86
2022/11/04 09:38:58;;;;;;;32.72;22.90;;;;;;;13.51;94.83;98544.13;4867238;29;20068;-86
2022/11/04 09:41:34;;;;;;;29.77;21.90;;;;;;;13.56;95.28;98534.97;4877316;29;20123;-86
2022/11/04 09:44:21;;;;;;;30.80;22.27;;;;;;;13.68;94.74;98536.66;4896093;29;20024;-86
2022/11/04 09:46:49;;;;;;;31.42;22.30;;;;;;;13.66;93.95;98530.72;4872299;29;20080;-86
2022/11/04 09:49:18;;;;;;;35.30;22.77;;;;;;;13.47;92.11;98539.13;4887122;29;20033;-86
2022/11/04 09:51:46;;;;;;;32.97;23.92;;;;;;;13.30;93.32;98536.97;4885251;29;20103;-86
2022/11/04 09:54:24;;;;;;;32.90;22.27;;;;;;;13.21;94.52;98555.94;4868692;29;20036;-86
2022/11/04 09:56:53;;;;;;;34.33;23.55;;;;;;;13.04;95.40;98544.09;4880582;29;20103;-86
2022/11/04 09:59:29;;;;;;;29.15;23.08;;;;;;;12.87;96.17;98545.34;4880615;29;20473;-86
2022/11/04 10:02:10;;;;;;;30.23;22.73;;;;;;;12.79;96.75;98550.31;4880743;29;20029;-86
2022/11/04 10:05:10;;;;;;;30.90;22.17;;;;;;;12.69;97.34;98554.56;4863859;29;20029;-86
2022/11/04 10:08:03;;;;;;;32.22;23.48;;;;;;;12.63;98.24;98561.03;4873726;29;20107;-86
2022/11/04 10:11:04;;;;;;;34.33;21.63;;;;;;;12.63;99.05;98554.97;4881571;29;20040;-86
2022/11/04 10:13:44;;;;;;;;;;;;;;;12.54;98.85;98559.09;4789187;29;20568;-86
2022/11/04 10:16:09;;;;;;;31.02;21.40;;;;;;;12.43;99.11;98562.50;4803864;29;19985;-86
2022/11/04 10:18:57;;;;;;;29.75;21.10;;;;;;;12.34;99.90;98551.84;4803949;29;20058;-86
2022/11/04 10:21:45;;;;;;;32.20;23.08;;;;;;;12.30;100.00;98548.63;4803483;29;20062;-86
2022/11/04 10:24:16;;;;;;;34.75;22.52;;;;;;;12.31;100.00;98542.47;4788525;29;20034;-86
2022/11/04 10:26:46;;;;;;;30.30;22.50;;;;;;;12.35;100.00;98543.09;4789118;29;20026;-86
2022/11/04 10:29:21;;;;;;;31.75;22.73;;;;;;;12.36;100.00;98540.34;4788859;29;20117;-86
2022/11/04 10:31:46;;;;;;;32.17;21.98;;;;;;;12.35;100.00;98532.66;4804032;29;20495;-85
2022/11/04 10:34:21;;;;;;;32.25;23.52;;;;;;;12.40;100.00;98530.53;4802932;29;20094;-85
2022/11/04 10:36:47;;;;;;;32.05;23.02;;;;;;;12.42;99.85;98539.91;4804225;29;20074;-85
2022/11/04 10:39:21;;;;;;;31.55;22.85;;;;;;;12.39;99.67;98531.47;4803897;29;20092;-85
2022/11/04 10:41:47;;;;;;;30.92;21.38;;;;;;;12.37;99.82;98547.25;4788940;29;20031;-85
2022/11/04 10:44:21;;;;;;;32.33;22.33;;;;;;;12.37;99.84;98551.63;4803899;29;20383;-85
2022/11/04 10:47:13;;;;;;;30.38;22.05;;;;;;;12.33;99.98;98556.22;4788887;29;20034;-85
2022/11/04 10:49:51;;;;;;;34.03;22.35;;;;;;;12.29;100.00;98554.78;4825922;29;20365;-85
2022/11/04 10:52:17;;;;;;;27.92;20.40;;;;;;;12.28;100.00;98553.13;4881229;29;20425;-85
2022/11/04 10:54:47;;;;;;;29.42;22.15;;;;;;;12.32;99.96;98553.75;4881411;29;20024;-85
2022/11/04 10:57:23;;;;;;;34.50;22.15;;;;;;;12.24;100.00;98544.66;4897934;29;20024;-85
2022/11/04 11:00:00;;;;;;;31.80;21.02;;;;;;;12.23;100.00;98556.06;4881157;29;20038;-86
2022/11/04 11:02:38;;;;;;;32.50;22.20;;;;;;;12.20;100.00;98556.28;4897879;29;20076;-86
2022/11/04 11:05:13;;;;;;;29.55;21.65;;;;;;;12.19;100.00;98552.00;4881145;29;20025;-86
2022/11/04 11:07:39;;;;;;;31.98;22.13;;;;;;;12.12;100.00;98532.47;4881002;29;20561;-86
2022/11/04 11:10:04;;;;;;;31.27;22.70;;;;;;;12.18;100.00;98539.91;4881058;29;20029;-85
2022/11/04 11:12:35;;;;;;;30.90;22.63;;;;;;;12.21;100.00;98539.66;4880985;29;20504;-85
2022/11/04 11:15:25;;;;;;;33.60;23.13;;;;;;;12.19;100.00;98536.34;4897938;29;20021;-85
2022/11/04 11:18:09;;;;;;;30.42;23.20;;;;;;;12.11;100.00;98537.81;4881006;29;20036;-85
2022/11/04 11:20:36;;;;;;;36.70;24.50;;;;;;;12.09;100.00;98540.53;4897453;29;20132;-85
2022/11/04 11:23:08;;;;;;;35.28;24.80;;;;;;;12.08;100.00;98538.03;4897815;29;20021;-85
2022/11/04 11:25:35;;;;;;;30.00;22.52;;;;;;;11.97;100.00;98536.19;4880671;29;20470;-85
2022/11/04 11:28:04;;;;;;;30.95;22.05;;;;;;;11.96;100.00;98550.16;4897567;29;20016;-85
2022/11/04 11:30:30;;;;;;;31.00;22.95;;;;;;;11.97;100.00;98544.84;4880495;29;20025;-85
2022/11/04 11:33:06;;;;;;;35.40;23.08;;;;;;;11.88;100.00;98535.06;4897448;29;20036;-85
2022/11/04 11:35:49;;;;;;;32.75;23.48;;;;;;;11.84;100.00;98514.47;4880543;29;20028;-85
2022/11/04 11:38:19;;;;;;;37.42;26.30;;;;;;;11.92;100.00;98512.19;4880400;29;20028;-85
2022/11/04 11:40:47;;;;;;;35.45;25.65;;;;;;;12.01;100.00;98529.81;4880606;29;20425;-85
2022/11/04 11:43:33;;;;;;;36.53;26.50;;;;;;;12.05;100.00;98520.84;4880314;29;20068;-86
2022/11/04 11:46:00;;;;;;;37.33;24.35;;;;;;;12.11;100.00;98515.16;4880386;29;20451;-85
2022/11/04 11:48:29;;;;;;;33.05;21.80;;;;;;;12.17;100.00;98533.00;4897101;29;20480;-86
2022/11/04 11:50:58;;;;;;;30.23;21.75;;;;;;;12.16;100.00;98522.66;4880442;29;20036;-85
2022/11/04 11:53:25;;;;;;;33.58;24.23;;;;;;;12.14;100.00;98504.50;4880055;29;20021;-86
2022/11/04 11:56:27;;;;;;;35.80;24.50;;;;;;;12.18;100.00;98523.41;4880100;29;20494;-85
2022/11/04 11:59:14;;;;;;;28.90;21.55;;;;;;;12.10;100.00;98512.69;4802738;29;20426;-85
2022/11/04 12:01:49;;;;;;;31.48;23.40;;;;;;;12.08;100.00;98512.75;4802449;29;20342;-85